createdAt,value
2022-09-14T00:00:03.458Z,18.48
2022-09-14T00:01:24.235Z,18.53
2022-09-14T00:02:05.550Z,18.43
2022-09-14T00:03:03.497Z,18.45
2022-09-14T00:04:03.363Z,18.42
2022-09-14T00:05:03.452Z,18.41
2022-09-14T00:06:03.336Z,18.43
2022-09-14T00:07:03.338Z,18.52
2022-09-14T00:08:04.335Z,18.39
2022-09-14T00:09:03.336Z,18.34
2022-09-14T00:10:03.351Z,18.28
2022-09-14T00:11:03.324Z,18.27
2022-09-14T00:12:03.290Z,18.27
2022-09-14T00:13:03.288Z,18.23
2022-09-14T00:14:03.301Z,18.18
2022-09-14T00:15:03.366Z,18.18
2022-09-14T00:16:03.270Z,18.19
2022-09-14T00:17:03.290Z,18.15
2022-09-14T00:18:03.223Z,18.26
2022-09-14T00:19:03.616Z,18.27
2022-09-14T00:20:03.338Z,18.26
2022-09-14T00:21:03.202Z,18.31
2022-09-14T00:22:03.205Z,18.21
2022-09-14T00:23:03.156Z,18.24
2022-09-14T00:24:03.190Z,18.15
2022-09-14T00:25:03.231Z,18.19
2022-09-14T00:26:03.145Z,18.21
2022-09-14T00:27:03.140Z,18.24
2022-09-14T00:28:03.125Z,18.28
2022-09-14T00:29:03.103Z,18.24
2022-09-14T00:30:03.596Z,18.28
2022-09-14T00:31:03.108Z,18.26
2022-09-14T00:32:03.289Z,18.30
2022-09-14T00:33:03.059Z,18.27
2022-09-14T00:34:03.098Z,18.28
2022-09-14T00:35:03.161Z,18.24
2022-09-14T00:36:03.053Z,18.15
2022-09-14T00:37:03.017Z,18.19
2022-09-14T00:38:03.014Z,18.06
2022-09-14T00:39:03.020Z,17.98
2022-09-14T00:40:03.101Z,17.97
2022-09-14T00:41:02.973Z,18.06
2022-09-14T00:42:02.979Z,18.08
2022-09-14T00:43:02.939Z,18.03
2022-09-14T00:44:02.922Z,18.06
2022-09-14T00:45:02.962Z,18.06
2022-09-14T00:46:02.966Z,18.05
2022-09-14T00:47:02.904Z,18.19
2022-09-14T00:48:02.961Z,18.05
2022-09-14T00:49:02.881Z,18.13
2022-09-14T00:50:02.944Z,18.08
2022-09-14T00:51:02.869Z,18.27
2022-09-14T00:52:02.851Z,18.16
2022-09-14T00:53:02.828Z,18.23
2022-09-14T00:54:02.826Z,18.12
2022-09-14T00:55:02.881Z,18.18
2022-09-14T00:56:02.795Z,18.19
2022-09-14T00:57:02.789Z,18.06
2022-09-14T00:58:02.777Z,18.15
2022-09-14T00:59:02.803Z,18.15
2022-09-14T01:00:02.861Z,18.21
2022-09-14T01:01:02.850Z,18.21
2022-09-14T01:02:02.850Z,18.19
2022-09-14T01:03:02.779Z,18.26
2022-09-14T01:04:02.703Z,18.16
2022-09-14T01:05:02.805Z,18.16
2022-09-14T01:06:02.688Z,18.31
2022-09-14T01:07:02.688Z,18.31
2022-09-14T01:08:02.664Z,18.24
2022-09-14T01:09:02.695Z,18.30
2022-09-14T01:10:02.737Z,18.18
2022-09-14T01:11:02.661Z,18.24
2022-09-14T01:12:02.691Z,18.23
2022-09-14T01:13:02.618Z,18.26
2022-09-14T01:14:02.609Z,18.19
2022-09-14T01:15:02.642Z,18.16
2022-09-14T01:16:02.647Z,18.16
2022-09-14T01:17:02.602Z,18.11
2022-09-14T01:18:02.571Z,18.18
2022-09-14T01:19:02.563Z,18.16
2022-09-14T01:20:02.659Z,18.16
2022-09-14T01:21:02.543Z,18.26
2022-09-14T01:22:02.516Z,18.18
2022-09-14T01:23:02.507Z,18.24
2022-09-14T01:24:02.487Z,18.09
2022-09-14T01:25:02.569Z,18.21
2022-09-14T01:26:02.474Z,18.15
2022-09-14T01:27:02.497Z,18.27
2022-09-14T01:28:02.473Z,18.24
2022-09-14T01:29:02.459Z,18.16
2022-09-14T01:30:02.499Z,18.16
2022-09-14T01:31:02.468Z,18.11
2022-09-14T01:32:02.490Z,18.27
2022-09-14T01:33:02.418Z,18.13
2022-09-14T01:34:02.413Z,18.24
2022-09-14T01:35:02.415Z,18.21
2022-09-14T01:36:02.409Z,18.11
2022-09-14T01:37:02.395Z,18.16
2022-09-14T01:38:02.341Z,18.23
2022-09-14T01:39:02.342Z,18.19
2022-09-14T01:40:02.443Z,18.24
2022-09-14T01:41:02.324Z,18.18
2022-09-14T01:42:02.339Z,18.24
2022-09-14T01:43:02.303Z,18.28
2022-09-14T01:44:02.302Z,18.18
2022-09-14T01:45:02.333Z,18.26
2022-09-14T01:46:02.325Z,18.16
2022-09-14T01:47:02.257Z,18.19
2022-09-14T01:48:02.261Z,18.11
2022-09-14T01:49:02.227Z,18.31
2022-09-14T01:50:02.274Z,18.23
2022-09-14T01:51:02.235Z,18.18
2022-09-14T01:52:02.219Z,18.00
2022-09-14T01:53:02.170Z,18.08
2022-09-14T01:54:02.253Z,17.93
2022-09-14T01:55:02.235Z,17.87
2022-09-14T01:56:02.151Z,17.97
2022-09-14T01:57:02.156Z,17.91
2022-09-14T01:58:02.138Z,18.00
2022-09-14T01:59:02.192Z,17.98
2022-09-14T02:00:02.128Z,18.02
2022-09-14T02:01:02.162Z,17.88
2022-09-14T02:02:02.152Z,17.80
2022-09-14T02:03:02.066Z,17.73
2022-09-14T02:04:02.171Z,17.80
2022-09-14T02:05:02.088Z,17.79
2022-09-14T02:06:02.037Z,17.82
2022-09-14T02:07:02.038Z,17.82
2022-09-14T02:08:02.033Z,17.80
2022-09-14T02:09:02.092Z,17.80
2022-09-14T02:10:02.005Z,17.79
2022-09-14T02:11:01.990Z,17.84
2022-09-14T02:12:01.991Z,17.82
2022-09-14T02:13:01.968Z,17.86
2022-09-14T02:14:02.014Z,17.91
2022-09-14T02:15:01.951Z,17.91
2022-09-14T02:16:01.966Z,17.86
2022-09-14T02:17:01.944Z,17.98
2022-09-14T02:18:01.923Z,17.98
2022-09-14T02:19:01.978Z,17.87
2022-09-14T02:20:01.912Z,17.87
2022-09-14T02:21:01.918Z,17.80
2022-09-14T02:22:01.919Z,17.88
2022-09-14T02:23:01.873Z,17.82
2022-09-14T02:24:02.130Z,17.80
2022-09-14T02:25:01.863Z,17.79
2022-09-14T02:26:01.792Z,17.82
2022-09-14T02:27:01.825Z,17.78
2022-09-14T02:28:01.815Z,17.80
2022-09-14T02:29:01.844Z,17.82
2022-09-14T02:30:01.802Z,17.78
2022-09-14T02:31:01.854Z,17.79
2022-09-14T02:32:01.762Z,17.76
2022-09-14T02:33:01.757Z,17.80
2022-09-14T02:34:01.747Z,17.88
2022-09-14T02:35:01.748Z,17.86
2022-09-14T02:36:01.718Z,17.80
2022-09-14T02:37:01.735Z,17.90
2022-09-14T02:38:01.736Z,17.82
2022-09-14T02:39:01.741Z,17.87
2022-09-14T02:40:01.742Z,17.78
2022-09-14T02:41:01.742Z,17.90
2022-09-14T02:42:01.706Z,17.91
2022-09-14T02:43:01.669Z,17.78
2022-09-14T02:44:01.655Z,17.82
2022-09-14T02:45:01.697Z,17.75
2022-09-14T02:46:01.629Z,17.76
2022-09-14T02:47:01.681Z,17.76
2022-09-14T02:48:01.630Z,17.68
2022-09-14T02:49:01.631Z,17.66
2022-09-14T02:50:01.599Z,17.75
2022-09-14T02:51:01.545Z,17.72
2022-09-14T02:52:01.540Z,17.75
2022-09-14T02:53:01.557Z,17.72
2022-09-14T02:54:01.583Z,17.76
2022-09-14T02:55:01.564Z,17.80
2022-09-14T02:56:01.517Z,17.76
2022-09-14T02:57:01.512Z,17.73
2022-09-14T02:58:01.505Z,17.71
2022-09-14T02:59:01.466Z,17.76
2022-09-14T03:00:01.535Z,17.75
2022-09-14T03:01:01.520Z,17.86
2022-09-14T03:02:01.466Z,17.65
2022-09-14T03:03:01.441Z,17.60
2022-09-14T03:04:01.502Z,17.47
2022-09-14T03:05:01.409Z,17.49
2022-09-14T03:06:01.407Z,17.37
2022-09-14T03:07:01.440Z,17.42
2022-09-14T03:08:01.403Z,17.31
2022-09-14T03:09:01.384Z,17.23
2022-09-14T03:10:01.432Z,17.35
2022-09-14T03:11:01.333Z,17.32
2022-09-14T03:12:01.378Z,17.28
2022-09-14T03:13:01.372Z,17.44
2022-09-14T03:14:01.347Z,17.34
2022-09-14T03:15:01.342Z,17.38
2022-09-14T03:16:01.347Z,17.42
2022-09-14T03:17:01.292Z,17.56
2022-09-14T03:18:01.306Z,17.41
2022-09-14T03:19:01.289Z,17.49
2022-09-14T03:20:01.257Z,17.46
2022-09-14T03:21:01.257Z,17.49
2022-09-14T03:22:01.241Z,17.44
2022-09-14T03:23:01.232Z,17.54
2022-09-14T03:24:01.243Z,17.41
2022-09-14T03:25:01.242Z,17.37
2022-09-14T03:26:01.195Z,17.38
2022-09-14T03:27:01.180Z,17.38
2022-09-14T03:28:01.159Z,17.41
2022-09-14T03:29:01.191Z,17.35
2022-09-14T03:30:01.128Z,17.30
2022-09-14T03:31:01.202Z,17.37
2022-09-14T03:32:01.113Z,17.31
2022-09-14T03:33:01.105Z,17.19
2022-09-14T03:34:01.152Z,17.17
2022-09-14T03:35:01.088Z,17.16
2022-09-14T03:36:01.070Z,17.14
2022-09-14T03:37:01.090Z,17.12
2022-09-14T03:38:01.066Z,17.01
2022-09-14T03:39:01.094Z,16.97
2022-09-14T03:40:01.098Z,16.97
2022-09-14T03:41:01.042Z,16.94
2022-09-14T03:42:01.077Z,16.87
2022-09-14T03:43:01.050Z,16.89
2022-09-14T03:44:01.080Z,16.82
2022-09-14T03:45:01.004Z,16.83
2022-09-14T03:46:00.980Z,16.87
2022-09-14T03:47:00.982Z,16.86
2022-09-14T03:48:00.930Z,16.79
2022-09-14T03:49:00.988Z,16.83
2022-09-14T03:50:00.931Z,16.77
2022-09-14T03:51:00.891Z,16.92
2022-09-14T03:52:00.899Z,16.89
2022-09-14T03:53:00.961Z,16.80
2022-09-14T03:54:00.949Z,16.94
2022-09-14T03:55:00.914Z,17.04
2022-09-14T03:56:00.890Z,16.95
2022-09-14T03:57:00.821Z,16.86
2022-09-14T03:58:00.843Z,16.91
2022-09-14T03:59:00.867Z,16.86
2022-09-14T04:00:00.825Z,16.97
2022-09-14T04:01:00.811Z,16.83
2022-09-14T04:02:00.832Z,16.87
2022-09-14T04:03:00.852Z,16.76
2022-09-14T04:04:00.850Z,16.74
2022-09-14T04:05:00.767Z,16.74
2022-09-14T04:06:00.785Z,16.76
2022-09-14T04:07:00.765Z,16.65
2022-09-14T04:08:00.737Z,16.66
2022-09-14T04:09:00.761Z,16.59
2022-09-14T04:10:00.780Z,16.62
2022-09-14T04:11:00.763Z,16.61
2022-09-14T04:12:00.688Z,16.46
2022-09-14T04:13:00.675Z,16.51
2022-09-14T04:14:01.027Z,16.49
2022-09-14T04:15:00.650Z,16.51
2022-09-14T04:16:00.787Z,16.49
2022-09-14T04:17:00.650Z,16.58
2022-09-14T04:18:00.711Z,16.47
2022-09-14T04:19:00.615Z,16.57
2022-09-14T04:20:00.623Z,16.62
2022-09-14T04:21:04.467Z,16.65
2022-09-14T04:22:01.586Z,16.68
2022-09-14T04:23:00.617Z,16.66
2022-09-14T04:24:14.746Z,16.64
2022-09-14T04:25:02.833Z,16.69
2022-09-14T04:26:00.539Z,16.64
2022-09-14T04:27:00.548Z,16.66
2022-09-14T04:28:19.152Z,16.72
2022-09-14T04:29:02.554Z,16.68
2022-09-14T04:30:00.533Z,16.59
2022-09-14T04:31:00.500Z,16.82
2022-09-14T04:32:00.440Z,16.68
2022-09-14T04:33:00.444Z,16.66
2022-09-14T04:34:00.524Z,16.66
2022-09-14T04:35:00.447Z,16.69
2022-09-14T04:36:00.443Z,16.59
2022-09-14T04:37:00.431Z,16.76
2022-09-14T04:38:00.406Z,16.73
2022-09-14T04:39:00.391Z,16.65
2022-09-14T04:40:00.480Z,16.72
2022-09-14T04:41:00.377Z,16.59
2022-09-14T04:42:00.348Z,16.58
2022-09-14T04:43:00.347Z,16.59
2022-09-14T04:44:00.333Z,16.58
2022-09-14T04:45:00.342Z,16.51
2022-09-14T04:46:00.326Z,16.39
2022-09-14T04:47:00.333Z,16.49
2022-09-14T04:48:00.308Z,16.43
2022-09-14T04:49:00.286Z,16.41
2022-09-14T04:50:00.391Z,16.41
2022-09-14T04:51:00.278Z,16.46
2022-09-14T04:52:00.260Z,16.40
2022-09-14T04:53:00.222Z,16.50
2022-09-14T04:54:00.284Z,16.49
2022-09-14T04:55:00.239Z,16.51
2022-09-14T04:56:00.184Z,16.57
2022-09-14T04:57:00.192Z,16.58
2022-09-14T04:58:07.036Z,16.57
2022-09-14T04:59:00.180Z,16.58
2022-09-14T05:00:00.338Z,16.58
2022-09-14T05:01:00.159Z,16.46
2022-09-14T05:02:00.214Z,16.50
2022-09-14T05:03:00.192Z,16.47
2022-09-14T05:04:00.224Z,16.39
2022-09-14T05:05:00.175Z,16.44
2022-09-14T05:06:00.098Z,16.44
2022-09-14T05:07:00.084Z,16.47
2022-09-14T05:08:00.086Z,16.31
2022-09-14T05:09:00.133Z,16.28
2022-09-14T05:10:00.208Z,16.28
2022-09-14T05:11:00.322Z,16.22
2022-09-14T05:12:00.138Z,16.21
2022-09-14T05:13:00.092Z,16.32
2022-09-14T05:14:00.097Z,16.25
2022-09-14T05:15:00.066Z,16.29
2022-09-14T05:16:00.073Z,16.31
2022-09-14T05:17:00.013Z,16.26
2022-09-14T05:18:00.092Z,16.31
2022-09-14T05:19:00.075Z,16.26
2022-09-14T05:20:00.068Z,16.18
2022-09-14T05:21:00.025Z,16.17
2022-09-14T05:21:59.900Z,16.28
2022-09-14T05:22:59.948Z,16.28
2022-09-14T05:24:00.002Z,16.18
2022-09-14T05:24:59.935Z,16.22
2022-09-14T05:26:00.007Z,16.18
2022-09-14T05:27:02.121Z,16.18
2022-09-14T05:28:00.852Z,16.17
2022-09-14T05:28:59.917Z,16.12
2022-09-14T05:29:59.893Z,16.16
2022-09-14T05:30:59.966Z,16.12
2022-09-14T05:31:59.826Z,15.96
2022-09-14T05:32:59.798Z,15.87
2022-09-14T05:34:00.085Z,15.75
2022-09-14T05:34:59.822Z,15.62
2022-09-14T05:35:59.799Z,15.62
2022-09-14T05:36:59.769Z,15.60
2022-09-14T05:37:59.871Z,15.59
2022-09-14T05:38:59.750Z,15.51
2022-09-14T05:39:59.777Z,15.55
2022-09-14T05:40:59.690Z,15.47
2022-09-14T05:41:59.811Z,15.51
2022-09-14T05:42:59.820Z,15.47
2022-09-14T05:43:59.673Z,15.47
2022-09-14T05:44:59.794Z,15.43
2022-09-14T05:45:59.846Z,15.36
2022-09-14T05:46:59.697Z,15.44
2022-09-14T05:47:59.734Z,15.35
2022-09-14T05:48:59.637Z,15.50
2022-09-14T05:49:59.685Z,15.35
2022-09-14T05:50:59.991Z,15.30
2022-09-14T05:51:59.678Z,15.27
2022-09-14T05:52:59.651Z,15.29
2022-09-14T05:53:59.652Z,15.26
2022-09-14T05:54:59.823Z,15.35
2022-09-14T05:55:59.580Z,15.26
2022-09-14T05:56:59.637Z,15.22
2022-09-14T05:57:59.584Z,15.27
2022-09-14T05:58:59.910Z,15.10
2022-09-14T05:59:59.552Z,15.19
2022-09-14T06:00:59.480Z,15.25
2022-09-14T06:01:59.531Z,15.22
2022-09-14T06:02:59.485Z,15.14
2022-09-14T06:03:59.548Z,15.25
2022-09-14T06:04:59.653Z,15.11
2022-09-14T06:05:59.552Z,15.22
2022-09-14T06:07:17.563Z,15.15
2022-09-14T06:08:01.728Z,15.10
2022-09-14T06:08:59.399Z,15.12
2022-09-14T06:09:59.716Z,15.02
2022-09-14T06:10:59.494Z,15.10
2022-09-14T06:11:59.347Z,15.02
2022-09-14T06:12:59.455Z,15.11
2022-09-14T06:13:59.446Z,15.19
2022-09-14T06:14:59.623Z,15.18
2022-09-14T06:15:59.378Z,15.22
2022-09-14T06:16:59.430Z,15.14
2022-09-14T06:17:59.371Z,15.12
2022-09-14T06:18:59.380Z,15.29
2022-09-14T06:20:04.136Z,15.30
2022-09-14T06:21:01.340Z,15.29
2022-09-14T06:21:59.257Z,15.33
2022-09-14T06:22:59.404Z,15.41
2022-09-14T06:23:59.291Z,15.41
2022-09-14T06:24:59.375Z,15.48
2022-09-14T06:25:59.369Z,15.52
2022-09-14T06:26:59.322Z,15.55
2022-09-14T06:27:59.202Z,15.51
2022-09-14T06:28:59.216Z,15.52
2022-09-14T06:29:59.337Z,15.48
2022-09-14T06:30:59.171Z,15.43
2022-09-14T06:31:59.258Z,15.39
2022-09-14T06:32:59.169Z,15.51
2022-09-14T06:33:59.154Z,15.50
2022-09-14T06:34:59.470Z,15.48
2022-09-14T06:35:59.199Z,15.54
2022-09-14T06:36:59.244Z,15.65
2022-09-14T06:37:59.171Z,15.65
2022-09-14T06:38:59.268Z,15.54
2022-09-14T06:39:59.215Z,15.50
2022-09-14T06:40:59.161Z,15.62
2022-09-14T06:41:59.173Z,15.54
2022-09-14T06:42:59.064Z,15.48
2022-09-14T06:43:59.039Z,15.48
2022-09-14T06:44:59.172Z,15.41
2022-09-14T06:45:59.012Z,15.32
2022-09-14T06:46:59.034Z,15.33
2022-09-14T06:47:58.991Z,15.32
2022-09-14T06:48:59.107Z,15.37
2022-09-14T06:49:59.041Z,15.37
2022-09-14T06:50:59.079Z,15.29
2022-09-14T06:51:59.031Z,15.29
2022-09-14T06:52:59.027Z,15.33
2022-09-14T06:53:59.041Z,15.33
2022-09-14T06:54:59.065Z,15.35
2022-09-14T06:55:59.008Z,15.41
2022-09-14T06:56:58.890Z,15.23
2022-09-14T06:57:58.897Z,15.22
2022-09-14T06:58:59.429Z,15.14
2022-09-14T06:59:59.236Z,15.22
2022-09-14T07:00:58.949Z,15.12
2022-09-14T07:01:58.887Z,15.26
2022-09-14T07:02:58.851Z,15.11
2022-09-14T07:03:58.937Z,15.29
2022-09-14T07:04:59.203Z,15.15
2022-09-14T07:05:58.831Z,15.15
2022-09-14T07:06:58.781Z,15.05
2022-09-14T07:07:58.781Z,15.04
2022-09-14T07:08:58.878Z,15.12
2022-09-14T07:09:58.785Z,15.11
2022-09-14T07:10:58.914Z,15.07
2022-09-14T07:11:58.801Z,14.96
2022-09-14T07:12:58.735Z,15.02
2022-09-14T07:13:58.832Z,15.02
2022-09-14T07:14:58.834Z,15.04
2022-09-14T07:15:58.724Z,15.12
2022-09-14T07:16:58.941Z,15.04
2022-09-14T07:17:58.731Z,15.00
2022-09-14T07:18:58.723Z,14.96
2022-09-14T07:19:58.730Z,15.04
2022-09-14T07:21:02.324Z,14.96
2022-09-14T07:21:59.924Z,15.00
2022-09-14T07:22:58.671Z,15.05
2022-09-14T07:23:58.590Z,15.15
2022-09-14T07:24:58.630Z,15.19
2022-09-14T07:25:58.673Z,15.23
2022-09-14T07:26:58.754Z,15.33
2022-09-14T07:27:58.611Z,15.27
2022-09-14T07:28:58.555Z,15.22
2022-09-14T07:29:58.656Z,15.15
2022-09-14T07:30:59.172Z,15.15
2022-09-14T07:31:59.491Z,15.11
2022-09-14T07:32:58.626Z,15.11
2022-09-14T07:33:58.504Z,15.10
2022-09-14T07:34:58.515Z,15.23
2022-09-14T07:35:58.572Z,15.17
2022-09-14T07:36:58.487Z,15.17
2022-09-14T07:37:58.544Z,15.14
2022-09-14T07:38:59.514Z,15.12
2022-09-14T07:39:58.548Z,15.12
2022-09-14T07:40:58.391Z,15.23
2022-09-14T07:41:58.483Z,15.23
2022-09-14T07:42:58.474Z,15.12
2022-09-14T07:43:59.423Z,15.11
2022-09-14T07:44:58.382Z,14.99
2022-09-14T07:45:58.514Z,15.08
2022-09-14T07:46:58.413Z,15.07
2022-09-14T07:47:58.343Z,15.04
2022-09-14T07:48:58.402Z,15.07
2022-09-14T07:49:58.444Z,15.00
2022-09-14T07:50:58.373Z,15.11
2022-09-14T07:51:58.269Z,15.07
2022-09-14T07:52:58.268Z,14.97
2022-09-14T07:53:58.397Z,14.89
2022-09-14T07:54:58.358Z,15.07
2022-09-14T07:55:58.334Z,14.97
2022-09-14T07:56:58.306Z,14.86
2022-09-14T07:57:58.294Z,14.94
2022-09-14T07:59:11.649Z,14.94
2022-09-14T08:00:00.253Z,14.94
2022-09-14T08:00:58.279Z,15.05
2022-09-14T08:01:58.368Z,14.99
2022-09-14T08:02:58.168Z,14.85
2022-09-14T08:04:00.534Z,14.87
2022-09-14T08:04:59.598Z,14.90
2022-09-14T08:05:58.199Z,14.89
2022-09-14T08:06:58.188Z,14.86
2022-09-14T08:07:58.131Z,15.04
2022-09-14T08:08:58.177Z,14.99
2022-09-14T08:09:58.198Z,15.00
2022-09-14T08:10:58.121Z,15.15
2022-09-14T08:11:58.189Z,15.11
2022-09-14T08:12:58.052Z,15.18
2022-09-14T08:13:58.125Z,15.19
2022-09-14T08:14:58.015Z,15.15
2022-09-14T08:15:58.026Z,15.11
2022-09-14T08:16:58.113Z,15.14
2022-09-14T08:17:58.023Z,15.18
2022-09-14T08:18:58.105Z,15.10
2022-09-14T08:19:58.022Z,15.17
2022-09-14T08:20:57.956Z,15.19
2022-09-14T08:21:57.978Z,15.18
2022-09-14T08:22:58.020Z,15.25
2022-09-14T08:23:57.943Z,15.26
2022-09-14T08:24:58.082Z,15.23
2022-09-14T08:25:57.904Z,15.35
2022-09-14T08:26:57.965Z,15.39
2022-09-14T08:27:57.908Z,15.29
2022-09-14T08:28:57.991Z,15.45
2022-09-14T08:29:57.952Z,15.41
2022-09-14T08:30:57.934Z,15.50
2022-09-14T08:31:58.011Z,15.51
2022-09-14T08:33:01.670Z,15.69
2022-09-14T08:33:58.853Z,15.72
2022-09-14T08:34:57.872Z,15.67
2022-09-14T08:35:58.499Z,15.65
2022-09-14T08:36:58.837Z,15.65
2022-09-14T08:37:57.810Z,15.57
2022-09-14T08:38:57.869Z,15.65
2022-09-14T08:39:57.854Z,15.57
2022-09-14T08:40:57.746Z,15.62
2022-09-14T08:41:57.775Z,15.48
2022-09-14T08:42:57.998Z,15.45
2022-09-14T08:43:57.718Z,15.44
2022-09-14T08:44:57.799Z,15.60
2022-09-14T08:45:57.886Z,15.52
2022-09-14T08:46:57.792Z,15.60
2022-09-14T08:47:58.829Z,15.59
2022-09-14T08:48:57.824Z,15.63
2022-09-14T08:49:57.775Z,15.72
2022-09-14T08:50:57.632Z,15.73
2022-09-14T08:51:57.714Z,15.65
2022-09-14T08:52:57.633Z,15.75
2022-09-14T08:53:57.727Z,15.75
2022-09-14T08:54:57.747Z,15.85
2022-09-14T08:55:57.724Z,15.65
2022-09-14T08:56:57.704Z,15.72
2022-09-14T08:57:57.686Z,15.67
2022-09-14T08:58:57.576Z,15.66
2022-09-14T08:59:57.713Z,15.57
2022-09-14T09:00:57.721Z,15.73
2022-09-14T09:01:57.582Z,15.57
2022-09-14T09:02:57.577Z,15.75
2022-09-14T09:03:57.645Z,15.75
2022-09-14T09:04:57.607Z,15.91
2022-09-14T09:05:57.566Z,15.85
2022-09-14T09:06:57.576Z,15.96
2022-09-14T09:07:57.566Z,16.10
2022-09-14T09:08:57.551Z,16.05
2022-09-14T09:09:57.478Z,16.08
2022-09-14T09:10:57.459Z,16.22
2022-09-14T09:11:57.423Z,16.40
2022-09-14T09:12:57.443Z,16.51
2022-09-14T09:13:57.409Z,16.49
2022-09-14T09:14:57.517Z,16.51
2022-09-14T09:15:57.414Z,16.62
2022-09-14T09:16:57.373Z,16.64
2022-09-14T09:17:57.394Z,16.47
2022-09-14T09:18:57.351Z,16.46
2022-09-14T09:19:57.521Z,16.62
2022-09-14T09:20:57.409Z,16.72
2022-09-14T09:21:57.404Z,16.65
2022-09-14T09:22:57.536Z,16.72
2022-09-14T09:23:57.334Z,16.77
2022-09-14T09:24:57.420Z,16.79
2022-09-14T09:25:57.347Z,16.74
2022-09-14T09:26:57.329Z,16.77
2022-09-14T09:27:57.464Z,16.72
2022-09-14T09:28:57.330Z,16.64
2022-09-14T09:29:57.373Z,16.74
2022-09-14T09:30:57.300Z,16.62
2022-09-14T09:31:57.407Z,16.62
2022-09-14T09:32:57.248Z,16.74
2022-09-14T09:33:57.170Z,16.89
2022-09-14T09:34:57.721Z,16.69
2022-09-14T09:35:57.178Z,16.76
2022-09-14T09:36:57.184Z,16.79
2022-09-14T09:37:57.188Z,16.49
2022-09-14T09:38:57.830Z,16.46
2022-09-14T09:39:57.178Z,16.34
2022-09-14T09:40:57.106Z,16.21
2022-09-14T09:41:57.174Z,16.13
2022-09-14T09:42:57.044Z,16.25
2022-09-14T09:43:57.073Z,16.26
2022-09-14T09:45:01.269Z,16.34
2022-09-14T09:45:59.277Z,16.31
2022-09-14T09:46:57.207Z,16.21
2022-09-14T09:47:57.123Z,16.32
2022-09-14T09:48:57.106Z,16.16
2022-09-14T09:49:57.151Z,15.96
2022-09-14T09:50:56.972Z,15.99
2022-09-14T09:51:56.983Z,16.06
2022-09-14T09:52:57.061Z,16.06
2022-09-14T09:53:56.959Z,16.03
2022-09-14T09:54:56.983Z,16.13
2022-09-14T09:55:57.002Z,15.94
2022-09-14T09:56:57.025Z,16.02
2022-09-14T09:57:56.976Z,16.10
2022-09-14T09:58:57.001Z,16.06
2022-09-14T09:59:57.013Z,16.00
2022-09-14T10:00:57.080Z,16.06
2022-09-14T10:01:56.962Z,16.02
2022-09-14T10:02:56.911Z,15.92
2022-09-14T10:03:56.993Z,15.91
2022-09-14T10:04:57.239Z,16.05
2022-09-14T10:05:56.913Z,16.09
2022-09-14T10:06:56.808Z,16.22
2022-09-14T10:07:56.803Z,16.16
2022-09-14T10:08:56.818Z,16.32
2022-09-14T10:09:56.832Z,16.44
2022-09-14T10:10:57.063Z,16.44
2022-09-14T10:11:56.838Z,16.51
2022-09-14T10:12:56.888Z,16.74
2022-09-14T10:13:56.713Z,16.73
2022-09-14T10:14:56.745Z,16.80
2022-09-14T10:15:56.873Z,16.91
2022-09-14T10:16:56.696Z,16.98
2022-09-14T10:17:56.689Z,16.99
2022-09-14T10:18:56.693Z,17.04
2022-09-14T10:19:56.725Z,17.10
2022-09-14T10:20:56.684Z,17.14
2022-09-14T10:21:56.661Z,16.94
2022-09-14T10:22:56.628Z,16.58
2022-09-14T10:23:56.634Z,16.49
2022-09-14T10:24:56.673Z,16.32
2022-09-14T10:25:56.619Z,16.24
2022-09-14T10:26:56.712Z,16.22
2022-09-14T10:27:56.686Z,16.06
2022-09-14T10:28:56.588Z,16.13
2022-09-14T10:29:56.591Z,16.02
2022-09-14T10:30:56.659Z,16.08
2022-09-14T10:31:56.535Z,16.21
2022-09-14T10:32:56.640Z,16.22
2022-09-14T10:33:56.612Z,16.21
2022-09-14T10:34:56.550Z,16.16
2022-09-14T10:35:56.480Z,16.25
2022-09-14T10:36:56.493Z,16.34
2022-09-14T10:37:56.461Z,16.34
2022-09-14T10:38:56.445Z,16.36
2022-09-14T10:39:57.055Z,16.31
2022-09-14T10:40:56.562Z,16.17
2022-09-14T10:41:56.457Z,16.16
2022-09-14T10:42:56.489Z,16.18
2022-09-14T10:43:56.450Z,16.24
2022-09-14T10:44:56.518Z,16.29
2022-09-14T10:45:56.484Z,16.36
2022-09-14T10:46:57.754Z,16.31
2022-09-14T10:47:56.442Z,16.28
2022-09-14T10:48:56.365Z,16.32
2022-09-14T10:49:56.393Z,16.32
2022-09-14T10:50:56.434Z,16.28
2022-09-14T10:51:56.403Z,16.25
2022-09-14T10:52:56.317Z,16.22
2022-09-14T10:53:56.391Z,16.32
2022-09-14T10:54:56.420Z,16.26
2022-09-14T10:55:56.406Z,16.25
2022-09-14T10:56:56.328Z,16.31
2022-09-14T10:57:56.268Z,16.25
2022-09-14T10:58:56.294Z,16.54
2022-09-14T10:59:56.396Z,16.47
2022-09-14T11:00:56.271Z,16.51
2022-09-14T11:01:56.249Z,16.57
2022-09-14T11:02:56.318Z,16.54
2022-09-14T11:03:56.528Z,16.57
2022-09-14T11:04:56.306Z,16.47
2022-09-14T11:05:56.173Z,16.47
2022-09-14T11:06:56.243Z,16.39
2022-09-14T11:07:56.184Z,16.41
2022-09-14T11:08:56.225Z,16.41
2022-09-14T11:09:56.244Z,16.34
2022-09-14T11:10:56.194Z,16.12
2022-09-14T11:11:56.247Z,16.16
2022-09-14T11:12:56.215Z,16.24
2022-09-14T11:13:56.145Z,16.39
2022-09-14T11:14:56.058Z,16.24
2022-09-14T11:15:56.133Z,16.29
2022-09-14T11:16:56.035Z,16.24
2022-09-14T11:17:56.115Z,16.34
2022-09-14T11:18:56.132Z,16.12
2022-09-14T11:19:56.076Z,16.09
2022-09-14T11:20:55.999Z,16.17
2022-09-14T11:21:56.086Z,16.22
2022-09-14T11:22:56.095Z,16.39
2022-09-14T11:23:56.204Z,16.29
2022-09-14T11:24:56.566Z,16.25
2022-09-14T11:25:56.022Z,16.31
2022-09-14T11:26:56.021Z,16.47
2022-09-14T11:27:56.012Z,16.41
2022-09-14T11:28:55.926Z,16.46
2022-09-14T11:29:56.080Z,16.49
2022-09-14T11:30:56.041Z,16.58
2022-09-14T11:32:19.349Z,16.51
2022-09-14T11:33:18.956Z,16.59
2022-09-14T11:33:55.853Z,16.51
2022-09-14T11:34:55.895Z,16.55
2022-09-14T11:35:55.838Z,16.51
2022-09-14T11:36:55.883Z,16.61
2022-09-14T11:37:55.879Z,16.51
2022-09-14T11:38:55.786Z,16.41
2022-09-14T11:39:56.236Z,16.50
2022-09-14T11:40:55.813Z,16.41
2022-09-14T11:41:55.855Z,16.32
2022-09-14T11:42:55.858Z,16.34
2022-09-14T11:43:55.734Z,16.25
2022-09-14T11:44:55.902Z,16.32
2022-09-14T11:45:55.805Z,16.44
2022-09-14T11:46:59.993Z,16.59
2022-09-14T11:47:57.857Z,16.58
2022-09-14T11:48:55.896Z,16.44
2022-09-14T11:49:55.843Z,16.34
2022-09-14T11:50:55.764Z,16.43
2022-09-14T11:51:55.736Z,16.41
2022-09-14T11:52:55.891Z,16.40
2022-09-14T11:53:55.711Z,16.34
2022-09-14T11:54:56.024Z,16.31
2022-09-14T11:55:55.640Z,16.25
2022-09-14T11:56:55.726Z,16.37
2022-09-14T11:57:55.794Z,16.39
2022-09-14T11:58:55.660Z,16.36
2022-09-14T11:59:55.726Z,16.25
2022-09-14T12:00:55.809Z,16.34
2022-09-14T12:01:55.639Z,16.05
2022-09-14T12:02:55.653Z,16.17
2022-09-14T12:03:55.672Z,16.08
2022-09-14T12:04:55.802Z,16.02
2022-09-14T12:05:55.627Z,15.99
2022-09-14T12:06:55.642Z,16.00
2022-09-14T12:07:55.550Z,16.02
2022-09-14T12:08:55.569Z,15.83
2022-09-14T12:09:55.517Z,15.69
2022-09-14T12:10:55.474Z,15.81
2022-09-14T12:11:55.453Z,15.81
2022-09-14T12:12:55.508Z,15.92
2022-09-14T12:13:55.476Z,15.92
2022-09-14T12:14:55.982Z,15.98
2022-09-14T12:15:55.506Z,15.96
2022-09-14T12:16:55.496Z,15.99
2022-09-14T12:17:55.399Z,15.98
2022-09-14T12:18:55.481Z,16.12
2022-09-14T12:19:55.545Z,16.12
2022-09-14T12:20:55.351Z,16.25
2022-09-14T12:21:55.395Z,16.18
2022-09-14T12:22:55.384Z,16.21
2022-09-14T12:23:55.381Z,16.17
2022-09-14T12:24:55.328Z,16.31
2022-09-14T12:25:55.371Z,16.22
2022-09-14T12:26:55.842Z,16.17
2022-09-14T12:27:55.314Z,16.09
2022-09-14T12:28:55.377Z,16.16
2022-09-14T12:29:55.672Z,16.13
2022-09-14T12:30:55.394Z,16.22
2022-09-14T12:31:55.324Z,16.18
2022-09-14T12:32:55.266Z,16.32
2022-09-14T12:33:55.241Z,16.31
2022-09-14T12:34:55.244Z,16.28
2022-09-14T12:35:55.241Z,16.29
2022-09-14T12:36:55.203Z,16.39
2022-09-14T12:37:55.147Z,16.40
2022-09-14T12:38:55.211Z,16.34
2022-09-14T12:39:55.535Z,16.21
2022-09-14T12:40:55.107Z,16.21
2022-09-14T12:41:55.133Z,16.17
2022-09-14T12:42:55.139Z,16.31
2022-09-14T12:43:55.089Z,16.24
2022-09-14T12:44:55.108Z,16.26
2022-09-14T12:45:55.169Z,16.25
2022-09-14T12:46:55.075Z,16.39
2022-09-14T12:47:55.145Z,16.40
2022-09-14T12:48:55.098Z,16.46
2022-09-14T12:49:55.230Z,16.47
2022-09-14T12:50:55.068Z,16.50
2022-09-14T12:51:55.151Z,16.50